Gabriella — OJHP — position and weather

sailwx.info

Track history (hours):
 
Tides and Currents Weather Stations Pressure Air Temp Water Temp Dewpoint Dewpoint Depression Visibility Wind Speed Wind Dir Waves Ship Positions

Gabriella

Last reported at 2014-Oct-31 22:33 UTC. Time now 2014-Oct-31 22:54 UTC.
Position N 59°34' E 021°29'.

Length 172 m; draft 6.5 m.

Type: Passenger vessel. MMSI: 230361000.

Date/timePositionNaut miles runAvg speedWind from/ knotsBaromVisibWave heightAir tempDewpointWater temp
2014-Oct-31 22:33N 59°34' E 021°29'5117.1
2014-Oct-31 19:34N 59°40' E 023°10'1717.5
2014-Oct-31 18:34N 59°44' E 023°43'1917.5
2014-Oct-31 17:28N 59°50' E 024°19'6 0.6
2014-Oct-31 06:33N 59°52' E 024°31'1818.1
2014-Oct-31 05:33N 59°46' E 023°57'1818.2
2014-Oct-31 04:33N 59°41' E 023°22'4118.1
2014-Oct-31 02:18N 59°33' E 022°03'1318.0
2014-Oct-31 01:33N 59°33' E 021°37'9611.6
2014-Oct-30 17:16N 59°29' E 018°27'8 7.3
2014-Oct-30 16:12N 59°22' E 018°19'711.2
2014-Oct-30 15:33N 59°19' E 018°06'0 0.1
2014-Oct-30 14:31N 59°19' E 018°06'0 0.0
2014-Oct-30 13:31N 59°19' E 018°06'0 0.0
2014-Oct-30 12:31N 59°19' E 018°06'0 0.0
2014-Oct-30 11:31N 59°19' E 018°06'0 0.0
2014-Oct-30 10:31N 59°19' E 018°06'0 0.0
2014-Oct-30 09:31N 59°19' E 018°06'2 1.9
2014-Oct-30 08:34N 59°19' E 018°10'9310.4
2014-Oct-29 23:33N 59°37' E 021°10'6716.7
2014-Oct-29 19:33N 59°41' E 023°21'1616.5
2014-Oct-29 18:33N 59°46' E 023°53'1615.9
2014-Oct-29 17:33N 59°51' E 024°23'5 0.5
2014-Oct-29 07:26N 59°53' E 024°32'1719.4
2014-Oct-29 06:33N 59°47' E 024°01'1919.4
2014-Oct-29 05:33N 59°42' E 023°23'4118.6
2014-Oct-29 03:22N 59°33' E 022°04'1012.1
2014-Oct-29 02:32N 59°32' E 021°45'1111.3
2014-Oct-29 01:33N 59°34' E 021°24'9010.8
2014-Oct-28 17:11N 59°28' E 018°26'7 9.8
2014-Oct-28 16:29N 59°22' E 018°27'1010.7
2014-Oct-28 15:34N 59°19' E 018°08'1 0.9
2014-Oct-28 14:28N 59°19' E 018°06'0 0.0
2014-Oct-28 13:31N 59°19' E 018°06'0 0.0
2014-Oct-28 12:31N 59°19' E 018°06'0 0.0
2014-Oct-28 11:31N 59°19' E 018°06'0 0.0
2014-Oct-28 10:31N 59°19' E 018°06'0 0.0
2014-Oct-28 09:31N 59°19' E 018°06'2 2.0
2014-Oct-28 08:33N 59°19' E 018°10'9 8.9
2014-Oct-28 07:30N 59°23' E 018°27'82 9.7
2014-Oct-27 23:07N 59°37' E 021°05'1017.8
2014-Oct-27 22:33N 59°35' E 021°24'5417.5
2014-Oct-27 19:30N 59°40' E 023°10'1617.5
2014-Oct-27 18:33N 59°44' E 023°41'21 1.8
2014-Oct-27 06:32N 59°50' E 024°21'2021.0
2014-Oct-27 05:34N 59°43' E 023°43'2420.7
2014-Oct-27 04:23N 59°38' E 022°56'3819.6
2014-Oct-27 02:28N 59°31' E 021°44'1111.6
2014-Oct-27 01:33N 59°34' E 021°24'9010.8
2014-Oct-26 17:11N 59°28' E 018°26'710.1
2014-Oct-26 16:32N 59°22' E 018°27'1010.7
2014-Oct-26 15:34N 59°19' E 018°07'1 0.7
2014-Oct-26 14:33N 59°19' E 018°06'0 0.0
2014-Oct-26 13:33N 59°19' E 018°06'0 0.0
2014-Oct-26 12:33N 59°19' E 018°06'0 0.0
2014-Oct-26 11:33N 59°19' E 018°06'0 0.0
2014-Oct-26 10:33N 59°19' E 018°06'0 0.0
2014-Oct-26 09:33N 59°19' E 018°06'2 1.9
2014-Oct-26 08:34N 59°19' E 018°10'9 8.7
2014-Oct-26 07:29N 59°23' E 018°27'8310.1
2014-Oct-25 23:18N 59°37' E 021°07'1115.3
2014-Oct-25 22:34N 59°34' E 021°29'5413.4
2014-Oct-25 18:32N 59°41' E 023°15'1616.3
2014-Oct-25 17:33N 59°45' E 023°45'1716.6
2014-Oct-25 16:33N 59°50' E 024°17'3 0.2
2014-Oct-25 05:31N 59°50' E 024°22'2020.5
2014-Oct-25 04:34N 59°45' E 023°45'5919.7
2014-Oct-25 01:34N 59°32' E 021°51'1716.3
2014-Oct-25 00:30N 59°34' E 021°17'8710.4
2014-Oct-24 16:11N 59°28' E 018°26'7 9.8
2014-Oct-24 15:31N 59°22' E 018°27'1010.7
2014-Oct-24 14:34N 59°19' E 018°07'1 0.7
2014-Oct-24 13:31N 59°19' E 018°06'0 0.0
2014-Oct-24 12:28N 59°19' E 018°06'0 0.0
2014-Oct-24 11:22N 59°19' E 018°06'0 0.0
2014-Oct-24 10:31N 59°19' E 018°06'0 0.0
2014-Oct-24 09:28N 59°19' E 018°06'0 0.0
2014-Oct-24 08:31N 59°19' E 018°06'2 1.9
2014-Oct-24 07:34N 59°19' E 018°09'91 9.8
2014-Oct-23 22:14N 59°37' E 021°06'1217.2
2014-Oct-23 21:34N 59°34' E 021°28'5217.0
2014-Oct-23 18:31N 59°40' E 023°09'1717.3
2014-Oct-23 17:33N 59°44' E 023°41'1917.2
2014-Oct-23 16:28N 59°50' E 024°17'2915.1
2014-Oct-23 14:33N 60°10' E 024°58'23 2.6
2014-Oct-23 05:32N 59°52' E 024°29'1818.2
2014-Oct-23 04:34N 59°46' E 023°56'1818.3
2014-Oct-23 03:33N 59°42' E 023°20'3918.3
2014-Oct-23 01:25N 59°33' E 022°04'1518.1
2014-Oct-23 00:34N 59°33' E 021°34'9511.5
2014-Oct-22 16:15N 59°28' E 018°26'7 9.9
2014-Oct-22 15:33N 59°21' E 018°27'1010.3
2014-Oct-22 14:33N 59°19' E 018°07'1 0.7
2014-Oct-22 13:33N 59°19' E 018°06'0 0.0
2014-Oct-22 12:33N 59°19' E 018°06'0 0.0
2014-Oct-22 11:33N 59°19' E 018°06'0 0.0
2014-Oct-22 10:33N 59°19' E 018°06'0 0.0
2014-Oct-22 09:33N 59°19' E 018°06'0 0.0
2014-Oct-22 08:33N 59°19' E 018°06'2 2.0
2014-Oct-22 07:33N 59°19' E 018°10'  
Track history (hours):
 
Tides and Currents Weather Stations Pressure Air Temp Water Temp Dewpoint Dewpoint Depression Visibility Wind Speed Wind Dir Waves Ship Positions

Gabriella

Last reported at 2014-Oct-31 22:33 UTC. Time now 2014-Oct-31 22:54 UTC.
Position N 59°34' E 021°29'.

Length 172 m; draft 6.5 m.

Type: Passenger vessel. MMSI: 230361000.

Date/timePositionNaut miles runAvg speedWind from/ knotsBaromVisibWave heightAir tempDewpointWater temp
2014-Oct-31 22:33N 59°34' E 021°29'5117.1
2014-Oct-31 19:34N 59°40' E 023°10'1717.5
2014-Oct-31 18:34N 59°44' E 023°43'1917.5
2014-Oct-31 17:28N 59°50' E 024°19'6 0.6
2014-Oct-31 06:33N 59°52' E 024°31'1818.1
2014-Oct-31 05:33N 59°46' E 023°57'1818.2
2014-Oct-31 04:33N 59°41' E 023°22'4118.1
2014-Oct-31 02:18N 59°33' E 022°03'1318.0
2014-Oct-31 01:33N 59°33' E 021°37'9611.6
2014-Oct-30 17:16N 59°29' E 018°27'8 7.3
2014-Oct-30 16:12N 59°22' E 018°19'711.2
2014-Oct-30 15:33N 59°19' E 018°06'0 0.1
2014-Oct-30 14:31N 59°19' E 018°06'0 0.0
2014-Oct-30 13:31N 59°19' E 018°06'0 0.0
2014-Oct-30 12:31N 59°19' E 018°06'0 0.0
2014-Oct-30 11:31N 59°19' E 018°06'0 0.0
2014-Oct-30 10:31N 59°19' E 018°06'0 0.0
2014-Oct-30 09:31N 59°19' E 018°06'2 1.9
2014-Oct-30 08:34N 59°19' E 018°10'9310.4
2014-Oct-29 23:33N 59°37' E 021°10'6716.7
2014-Oct-29 19:33N 59°41' E 023°21'1616.5
2014-Oct-29 18:33N 59°46' E 023°53'1615.9
2014-Oct-29 17:33N 59°51' E 024°23'5 0.5
2014-Oct-29 07:26N 59°53' E 024°32'1719.4
2014-Oct-29 06:33N 59°47' E 024°01'1919.4
2014-Oct-29 05:33N 59°42' E 023°23'4118.6
2014-Oct-29 03:22N 59°33' E 022°04'1012.1
2014-Oct-29 02:32N 59°32' E 021°45'1111.3
2014-Oct-29 01:33N 59°34' E 021°24'9010.8
2014-Oct-28 17:11N 59°28' E 018°26'7 9.8
2014-Oct-28 16:29N 59°22' E 018°27'1010.7
2014-Oct-28 15:34N 59°19' E 018°08'1 0.9
2014-Oct-28 14:28N 59°19' E 018°06'0 0.0
2014-Oct-28 13:31N 59°19' E 018°06'0 0.0
2014-Oct-28 12:31N 59°19' E 018°06'0 0.0
2014-Oct-28 11:31N 59°19' E 018°06'0 0.0
2014-Oct-28 10:31N 59°19' E 018°06'0 0.0
2014-Oct-28 09:31N 59°19' E 018°06'2 2.0
2014-Oct-28 08:33N 59°19' E 018°10'9 8.9
2014-Oct-28 07:30N 59°23' E 018°27'82 9.7
2014-Oct-27 23:07N 59°37' E 021°05'1017.8
2014-Oct-27 22:33N 59°35' E 021°24'5417.5
2014-Oct-27 19:30N 59°40' E 023°10'1617.5
2014-Oct-27 18:33N 59°44' E 023°41'21 1.8
2014-Oct-27 06:32N 59°50' E 024°21'2021.0
2014-Oct-27 05:34N 59°43' E 023°43'2420.7
2014-Oct-27 04:23N 59°38' E 022°56'3819.6
2014-Oct-27 02:28N 59°31' E 021°44'1111.6
2014-Oct-27 01:33N 59°34' E 021°24'9010.8
2014-Oct-26 17:11N 59°28' E 018°26'710.1
2014-Oct-26 16:32N 59°22' E 018°27'1010.7
2014-Oct-26 15:34N 59°19' E 018°07'1 0.7
2014-Oct-26 14:33N 59°19' E 018°06'0 0.0
2014-Oct-26 13:33N 59°19' E 018°06'0 0.0
2014-Oct-26 12:33N 59°19' E 018°06'0 0.0
2014-Oct-26 11:33N 59°19' E 018°06'0 0.0
2014-Oct-26 10:33N 59°19' E 018°06'0 0.0
2014-Oct-26 09:33N 59°19' E 018°06'2 1.9
2014-Oct-26 08:34N 59°19' E 018°10'9 8.7
2014-Oct-26 07:29N 59°23' E 018°27'8310.1
2014-Oct-25 23:18N 59°37' E 021°07'1115.3
2014-Oct-25 22:34N 59°34' E 021°29'5413.4
2014-Oct-25 18:32N 59°41' E 023°15'1616.3
2014-Oct-25 17:33N 59°45' E 023°45'1716.6
2014-Oct-25 16:33N 59°50' E 024°17'3 0.2
2014-Oct-25 05:31N 59°50' E 024°22'2020.5
2014-Oct-25 04:34N 59°45' E 023°45'5919.7
2014-Oct-25 01:34N 59°32' E 021°51'1716.3
2014-Oct-25 00:30N 59°34' E 021°17'8710.4
2014-Oct-24 16:11N 59°28' E 018°26'7 9.8
2014-Oct-24 15:31N 59°22' E 018°27'1010.7
2014-Oct-24 14:34N 59°19' E 018°07'1 0.7
2014-Oct-24 13:31N 59°19' E 018°06'0 0.0
2014-Oct-24 12:28N 59°19' E 018°06'0 0.0
2014-Oct-24 11:22N 59°19' E 018°06'0 0.0
2014-Oct-24 10:31N 59°19' E 018°06'0 0.0
2014-Oct-24 09:28N 59°19' E 018°06'0 0.0
2014-Oct-24 08:31N 59°19' E 018°06'2 1.9
2014-Oct-24 07:34N 59°19' E 018°09'91 9.8
2014-Oct-23 22:14N 59°37' E 021°06'1217.2
2014-Oct-23 21:34N 59°34' E 021°28'5217.0
2014-Oct-23 18:31N 59°40' E 023°09'1717.3
2014-Oct-23 17:33N 59°44' E 023°41'1917.2
2014-Oct-23 16:28N 59°50' E 024°17'2915.1
2014-Oct-23 14:33N 60°10' E 024°58'23 2.6
2014-Oct-23 05:32N 59°52' E 024°29'1818.2
2014-Oct-23 04:34N 59°46' E 023°56'1818.3
2014-Oct-23 03:33N 59°42' E 023°20'3918.3
2014-Oct-23 01:25N 59°33' E 022°04'1518.1
2014-Oct-23 00:34N 59°33' E 021°34'9511.5
2014-Oct-22 16:15N 59°28' E 018°26'7 9.9
2014-Oct-22 15:33N 59°21' E 018°27'1010.3
2014-Oct-22 14:33N 59°19' E 018°07'1 0.7
2014-Oct-22 13:33N 59°19' E 018°06'0 0.0
2014-Oct-22 12:33N 59°19' E 018°06'0 0.0
2014-Oct-22 11:33N 59°19' E 018°06'0 0.0
2014-Oct-22 10:33N 59°19' E 018°06'0 0.0
2014-Oct-22 09:33N 59°19' E 018°06'0 0.0
2014-Oct-22 08:33N 59°19' E 018°06'2 2.0
2014-Oct-22 07:33N 59°19' E 018°10'  

Dump ship's entire track history